sensor_id;sensor_type;location;lat;lon;timestamp;pressure;altitude;pressure_sealevel;temperature;humidity
26376;BME280;30544;42.196;24.336;2023-07-31T00:00:08;98488.09;;;29.69;34.95
26376;BME280;30544;42.196;24.336;2023-07-31T00:02:35;98497.03;;;29.64;34.82
26376;BME280;30544;42.196;24.336;2023-07-31T00:05:01;98499.06;;;29.63;34.98
26376;BME280;30544;42.196;24.336;2023-07-31T00:07:27;98512.50;;;29.59;34.90
26376;BME280;30544;42.196;24.336;2023-07-31T00:09:54;98509.06;;;29.47;34.93
26376;BME280;30544;42.196;24.336;2023-07-31T00:12:22;98506.25;;;29.50;34.79
26376;BME280;30544;42.196;24.336;2023-07-31T00:14:48;98509.53;;;29.52;35.06
26376;BME280;30544;42.196;24.336;2023-07-31T00:17:14;98516.47;;;29.51;34.72
26376;BME280;30544;42.196;24.336;2023-07-31T00:19:40;98518.84;;;29.46;35.10
26376;BME280;30544;42.196;24.336;2023-07-31T00:22:07;98520.91;;;29.49;35.03
26376;BME280;30544;42.196;24.336;2023-07-31T00:24:33;98520.13;;;29.52;34.73
26376;BME280;30544;42.196;24.336;2023-07-31T00:26:59;98521.31;;;29.47;35.01
26376;BME280;30544;42.196;24.336;2023-07-31T00:29:25;98521.63;;;29.42;35.11
26376;BME280;30544;42.196;24.336;2023-07-31T00:31:52;98515.94;;;29.42;35.23
26376;BME280;30544;42.196;24.336;2023-07-31T00:34:18;98515.22;;;29.49;34.81
26376;BME280;30544;42.196;24.336;2023-07-31T00:36:44;98533.94;;;29.46;35.09
26376;BME280;30544;42.196;24.336;2023-07-31T00:39:10;98536.25;;;29.37;35.26
26376;BME280;30544;42.196;24.336;2023-07-31T00:41:36;98527.75;;;29.41;35.70
26376;BME280;30544;42.196;24.336;2023-07-31T00:44:03;98538.41;;;29.14;37.56
26376;BME280;30544;42.196;24.336;2023-07-31T00:46:29;98542.13;;;29.18;37.56
26376;BME280;30544;42.196;24.336;2023-07-31T00:48:56;98546.19;;;29.17;38.18
26376;BME280;30544;42.196;24.336;2023-07-31T00:51:22;98545.47;;;29.23;37.72
26376;BME280;30544;42.196;24.336;2023-07-31T00:53:49;98552.50;;;29.33;38.18
26376;BME280;30544;42.196;24.336;2023-07-31T00:56:15;98553.25;;;29.26;37.95
26376;BME280;30544;42.196;24.336;2023-07-31T00:58:41;98547.31;;;29.09;38.24
26376;BME280;30544;42.196;24.336;2023-07-31T01:01:08;98542.00;;;29.07;38.31
26376;BME280;30544;42.196;24.336;2023-07-31T01:03:35;98545.91;;;29.25;38.41
26376;BME280;30544;42.196;24.336;2023-07-31T01:06:11;98552.06;;;29.01;38.35
26376;BME280;30544;42.196;24.336;2023-07-31T01:08:42;98540.72;;;29.04;39.27
26376;BME280;30544;42.196;24.336;2023-07-31T01:11:15;98554.03;;;28.93;39.57
26376;BME280;30544;42.196;24.336;2023-07-31T01:13:42;98548.94;;;28.83;39.60
26376;BME280;30544;42.196;24.336;2023-07-31T01:16:09;98550.09;;;28.79;40.33
26376;BME280;30544;42.196;24.336;2023-07-31T01:18:35;98547.63;;;28.77;41.29
26376;BME280;30544;42.196;24.336;2023-07-31T01:21:11;98546.59;;;28.62;41.95
26376;BME280;30544;42.196;24.336;2023-07-31T01:24:06;98531.75;;;28.76;42.69
26376;BME280;30544;42.196;24.336;2023-07-31T01:26:38;98527.06;;;28.64;43.76
26376;BME280;30544;42.196;24.336;2023-07-31T01:29:10;98536.22;;;28.77;43.96
26376;BME280;30544;42.196;24.336;2023-07-31T01:31:39;98534.38;;;28.62;44.86
26376;BME280;30544;42.196;24.336;2023-07-31T01:34:08;98527.56;;;28.43;46.15
26376;BME280;30544;42.196;24.336;2023-07-31T01:36:35;98527.06;;;28.38;47.66
26376;BME280;30544;42.196;24.336;2023-07-31T01:39:02;98532.41;;;28.39;48.16
26376;BME280;30544;42.196;24.336;2023-07-31T01:41:29;98512.88;;;28.41;48.17
26376;BME280;30544;42.196;24.336;2023-07-31T01:43:56;98513.84;;;28.26;49.73
26376;BME280;30544;42.196;24.336;2023-07-31T01:46:22;98516.28;;;28.05;50.32
26376;BME280;30544;42.196;24.336;2023-07-31T01:48:48;98514.41;;;27.90;51.43
26376;BME280;30544;42.196;24.336;2023-07-31T01:51:14;98521.78;;;27.71;52.68
26376;BME280;30544;42.196;24.336;2023-07-31T01:53:40;98521.13;;;27.78;53.02
26376;BME280;30544;42.196;24.336;2023-07-31T01:56:06;98521.66;;;27.64;53.07
26376;BME280;30544;42.196;24.336;2023-07-31T01:58:32;98523.69;;;27.64;53.53
26376;BME280;30544;42.196;24.336;2023-07-31T02:00:59;98516.78;;;27.65;54.24
26376;BME280;30544;42.196;24.336;2023-07-31T02:03:25;98517.63;;;27.65;53.44
26376;BME280;30544;42.196;24.336;2023-07-31T02:05:51;98526.66;;;27.71;54.05
26376;BME280;30544;42.196;24.336;2023-07-31T02:08:19;98525.84;;;27.51;53.97
26376;BME280;30544;42.196;24.336;2023-07-31T02:10:45;98521.41;;;27.53;54.66
26376;BME280;30544;42.196;24.336;2023-07-31T02:13:12;98533.06;;;27.64;54.16
26376;BME280;30544;42.196;24.336;2023-07-31T02:15:38;98525.41;;;27.68;55.18
26376;BME280;30544;42.196;24.336;2023-07-31T02:18:05;98532.66;;;27.66;54.46
26376;BME280;30544;42.196;24.336;2023-07-31T02:20:33;98525.53;;;27.75;54.85
26376;BME280;30544;42.196;24.336;2023-07-31T02:22:59;98527.63;;;27.78;54.25
26376;BME280;30544;42.196;24.336;2023-07-31T02:25:25;98521.63;;;27.83;53.21
26376;BME280;30544;42.196;24.336;2023-07-31T02:27:52;98530.59;;;27.85;54.67
26376;BME280;30544;42.196;24.336;2023-07-31T02:30:18;98527.19;;;27.76;55.54
26376;BME280;30544;42.196;24.336;2023-07-31T02:32:44;98525.66;;;27.82;56.02
26376;BME280;30544;42.196;24.336;2023-07-31T02:35:11;98523.59;;;27.79;56.58
26376;BME280;30544;42.196;24.336;2023-07-31T02:37:40;98523.13;;;27.77;57.00
26376;BME280;30544;42.196;24.336;2023-07-31T02:40:07;98519.09;;;27.78;57.79
26376;BME280;30544;42.196;24.336;2023-07-31T02:42:33;98518.50;;;27.69;57.99
26376;BME280;30544;42.196;24.336;2023-07-31T02:44:59;98514.44;;;27.70;58.25
26376;BME280;30544;42.196;24.336;2023-07-31T02:47:26;98512.19;;;27.79;58.68
26376;BME280;30544;42.196;24.336;2023-07-31T02:49:52;98496.31;;;27.78;59.02
26376;BME280;30544;42.196;24.336;2023-07-31T02:52:18;98501.19;;;27.78;58.13
26376;BME280;30544;42.196;24.336;2023-07-31T02:54:45;98500.75;;;27.76;58.08
26376;BME280;30544;42.196;24.336;2023-07-31T02:57:11;98500.84;;;27.83;57.79
26376;BME280;30544;42.196;24.336;2023-07-31T02:59:37;98504.53;;;27.83;58.13
26376;BME280;30544;42.196;24.336;2023-07-31T03:02:03;98511.09;;;27.87;57.54
26376;BME280;30544;42.196;24.336;2023-07-31T03:04:29;98523.69;;;27.86;56.62
26376;BME280;30544;42.196;24.336;2023-07-31T03:06:56;98516.69;;;27.80;57.46
26376;BME280;30544;42.196;24.336;2023-07-31T03:09:22;98527.19;;;27.76;56.70
26376;BME280;30544;42.196;24.336;2023-07-31T03:11:48;98523.00;;;27.70;56.54
26376;BME280;30544;42.196;24.336;2023-07-31T03:14:14;98526.59;;;27.67;56.42
26376;BME280;30544;42.196;24.336;2023-07-31T03:16:41;98530.56;;;27.63;57.75
26376;BME280;30544;42.196;24.336;2023-07-31T03:19:07;98530.56;;;27.63;57.01
26376;BME280;30544;42.196;24.336;2023-07-31T03:21:33;98531.25;;;27.56;57.33
26376;BME280;30544;42.196;24.336;2023-07-31T03:23:59;98543.09;;;27.58;56.89
26376;BME280;30544;42.196;24.336;2023-07-31T03:26:25;98547.97;;;27.57;56.89
26376;BME280;30544;42.196;24.336;2023-07-31T03:28:52;98549.09;;;27.34;57.90
26376;BME280;30544;42.196;24.336;2023-07-31T03:31:18;98553.94;;;27.33;57.06
26376;BME280;30544;42.196;24.336;2023-07-31T03:33:44;98551.94;;;27.34;57.19
26376;BME280;30544;42.196;24.336;2023-07-31T03:36:10;98550.13;;;27.06;57.99
26376;BME280;30544;42.196;24.336;2023-07-31T03:38:36;98559.25;;;27.15;57.09
26376;BME280;30544;42.196;24.336;2023-07-31T03:41:02;98568.78;;;27.23;57.83
26376;BME280;30544;42.196;24.336;2023-07-31T03:43:29;98571.53;;;27.19;57.04
26376;BME280;30544;42.196;24.336;2023-07-31T03:45:55;98568.56;;;27.32;57.08
26376;BME280;30544;42.196;24.336;2023-07-31T03:48:21;98575.50;;;27.15;56.59
26376;BME280;30544;42.196;24.336;2023-07-31T03:50:47;98580.13;;;27.04;56.54
26376;BME280;30544;42.196;24.336;2023-07-31T03:53:13;98578.22;;;27.08;57.66
26376;BME280;30544;42.196;24.336;2023-07-31T03:55:40;98583.09;;;27.07;57.01
26376;BME280;30544;42.196;24.336;2023-07-31T03:58:06;98582.34;;;27.10;57.09
26376;BME280;30544;42.196;24.336;2023-07-31T04:00:32;98589.22;;;27.09;57.04
26376;BME280;30544;42.196;24.336;2023-07-31T04:02:59;98589.22;;;27.09;57.42
26376;BME280;30544;42.196;24.336;2023-07-31T04:05:26;98581.59;;;26.97;57.45
26376;BME280;30544;42.196;24.336;2023-07-31T04:07:52;98593.72;;;27.10;57.66
26376;BME280;30544;42.196;24.336;2023-07-31T04:10:18;98584.44;;;27.13;57.47
26376;BME280;30544;42.196;24.336;2023-07-31T04:12:44;98593.59;;;27.22;57.07
26376;BME280;30544;42.196;24.336;2023-07-31T04:15:10;98586.53;;;27.36;56.52
26376;BME280;30544;42.196;24.336;2023-07-31T04:17:37;98587.28;;;27.33;56.52
26376;BME280;30544;42.196;24.336;2023-07-31T04:20:03;98583.41;;;27.41;55.94
26376;BME280;30544;42.196;24.336;2023-07-31T04:22:30;98575.31;;;27.43;55.86
26376;BME280;30544;42.196;24.336;2023-07-31T04:24:56;98577.03;;;27.47;56.63
26376;BME280;30544;42.196;24.336;2023-07-31T04:27:22;98583.47;;;27.44;56.04
26376;BME280;30544;42.196;24.336;2023-07-31T04:29:48;98579.19;;;27.35;56.60
26376;BME280;30544;42.196;24.336;2023-07-31T04:32:14;98593.28;;;27.47;56.51
26376;BME280;30544;42.196;24.336;2023-07-31T04:34:42;98584.59;;;27.59;55.99
26376;BME280;30544;42.196;24.336;2023-07-31T04:37:09;98594.50;;;27.65;56.47
26376;BME280;30544;42.196;24.336;2023-07-31T04:39:35;98592.84;;;27.64;56.01
26376;BME280;30544;42.196;24.336;2023-07-31T04:42:01;98601.50;;;27.52;55.80
26376;BME280;30544;42.196;24.336;2023-07-31T04:44:27;98595.81;;;27.52;55.96
26376;BME280;30544;42.196;24.336;2023-07-31T04:46:53;98597.78;;;27.67;55.21
26376;BME280;30544;42.196;24.336;2023-07-31T04:49:20;98606.72;;;27.66;56.02
26376;BME280;30544;42.196;24.336;2023-07-31T04:51:46;98605.34;;;27.79;55.18
26376;BME280;30544;42.196;24.336;2023-07-31T04:54:12;98600.03;;;27.77;54.72
26376;BME280;30544;42.196;24.336;2023-07-31T04:56:40;98601.47;;;27.68;55.33
26376;BME280;30544;42.196;24.336;2023-07-31T04:59:06;98596.88;;;27.82;54.91
26376;BME280;30544;42.196;24.336;2023-07-31T05:01:32;98591.00;;;28.86;52.72
26376;BME280;30544;42.196;24.336;2023-07-31T05:03:58;98592.03;;;29.31;51.14
26376;BME280;30544;42.196;24.336;2023-07-31T05:06:24;98593.34;;;28.81;52.29
26376;BME280;30544;42.196;24.336;2023-07-31T05:08:51;98599.78;;;29.00;50.95
26376;BME280;30544;42.196;24.336;2023-07-31T05:11:17;98587.19;;;29.05;51.10
26376;BME280;30544;42.196;24.336;2023-07-31T05:13:43;98589.00;;;29.17;50.82
26376;BME280;30544;42.196;24.336;2023-07-31T05:16:09;98592.47;;;29.33;50.50
26376;BME280;30544;42.196;24.336;2023-07-31T05:18:35;98591.41;;;29.45;50.26
26376;BME280;30544;42.196;24.336;2023-07-31T05:21:02;98583.78;;;29.52;49.85
26376;BME280;30544;42.196;24.336;2023-07-31T05:23:29;98582.81;;;29.41;49.88
26376;BME280;30544;42.196;24.336;2023-07-31T05:26:03;98582.13;;;29.51;49.91
26376;BME280;30544;42.196;24.336;2023-07-31T05:28:29;98590.72;;;29.51;49.33
26376;BME280;30544;42.196;24.336;2023-07-31T05:30:59;98585.13;;;29.62;49.37
26376;BME280;30544;42.196;24.336;2023-07-31T05:33:25;98575.81;;;29.69;49.58
26376;BME280;30544;42.196;24.336;2023-07-31T05:35:51;98584.41;;;29.72;49.32
26376;BME280;30544;42.196;24.336;2023-07-31T05:38:17;98581.63;;;29.76;49.21
26376;BME280;30544;42.196;24.336;2023-07-31T05:40:43;98590.97;;;29.73;48.61
26376;BME280;30544;42.196;24.336;2023-07-31T05:43:10;98592.91;;;29.65;49.08
26376;BME280;30544;42.196;24.336;2023-07-31T05:45:36;98589.28;;;29.68;49.09
26376;BME280;30544;42.196;24.336;2023-07-31T05:48:03;98577.94;;;29.75;48.67
26376;BME280;30544;42.196;24.336;2023-07-31T05:50:29;98592.69;;;29.81;48.39
26376;BME280;30544;42.196;24.336;2023-07-31T05:52:56;98585.53;;;29.60;48.65
26376;BME280;30544;42.196;24.336;2023-07-31T05:55:22;98580.69;;;29.64;48.51
26376;BME280;30544;42.196;24.336;2023-07-31T05:57:48;98587.28;;;29.72;48.93
26376;BME280;30544;42.196;24.336;2023-07-31T06:00:16;98584.88;;;29.74;49.18
26376;BME280;30544;42.196;24.336;2023-07-31T06:02:42;98585.84;;;29.89;48.87
26376;BME280;30544;42.196;24.336;2023-07-31T06:05:08;98583.44;;;29.91;48.49
26376;BME280;30544;42.196;24.336;2023-07-31T06:07:34;98590.19;;;30.09;48.66
26376;BME280;30544;42.196;24.336;2023-07-31T06:10:00;98595.13;;;30.12;48.18
26376;BME280;30544;42.196;24.336;2023-07-31T06:12:30;98601.34;;;29.54;49.11
26376;BME280;30544;42.196;24.336;2023-07-31T06:14:56;98605.94;;;29.62;49.21
26376;BME280;30544;42.196;24.336;2023-07-31T06:17:23;98595.31;;;29.59;49.35
26376;BME280;30544;42.196;24.336;2023-07-31T06:19:49;98584.78;;;29.67;49.35
26376;BME280;30544;42.196;24.336;2023-07-31T06:22:16;98603.06;;;29.32;50.25
26376;BME280;30544;42.196;24.336;2023-07-31T06:24:42;98585.72;;;29.45;50.27
26376;BME280;30544;42.196;24.336;2023-07-31T06:27:08;98583.16;;;29.70;49.88
26376;BME280;30544;42.196;24.336;2023-07-31T06:29:34;98583.59;;;29.72;49.43
26376;BME280;30544;42.196;24.336;2023-07-31T06:32:01;98587.34;;;29.76;49.61
26376;BME280;30544;42.196;24.336;2023-07-31T06:34:28;98584.38;;;29.69;49.10
26376;BME280;30544;42.196;24.336;2023-07-31T06:36:54;98593.59;;;29.55;48.80
26376;BME280;30544;42.196;24.336;2023-07-31T06:39:20;98583.50;;;29.61;48.93
26376;BME280;30544;42.196;24.336;2023-07-31T06:41:46;98580.22;;;29.59;49.05
26376;BME280;30544;42.196;24.336;2023-07-31T06:44:13;98578.09;;;29.89;49.29
26376;BME280;30544;42.196;24.336;2023-07-31T06:46:39;98587.53;;;29.93;48.10
26376;BME280;30544;42.196;24.336;2023-07-31T06:49:05;98581.19;;;30.07;48.35
26376;BME280;30544;42.196;24.336;2023-07-31T06:51:32;98588.19;;;30.13;47.60
26376;BME280;30544;42.196;24.336;2023-07-31T06:53:58;98587.13;;;30.32;47.53
26376;BME280;30544;42.196;24.336;2023-07-31T06:56:24;98596.59;;;30.40;47.17
26376;BME280;30544;42.196;24.336;2023-07-31T06:58:51;98596.81;;;30.20;47.28
26376;BME280;30544;42.196;24.336;2023-07-31T07:01:17;98603.22;;;29.73;47.19
26376;BME280;30544;42.196;24.336;2023-07-31T07:03:43;98599.75;;;29.90;47.36
26376;BME280;30544;42.196;24.336;2023-07-31T07:06:09;98603.81;;;29.89;47.19
26376;BME280;30544;42.196;24.336;2023-07-31T07:08:36;98608.81;;;30.00;47.16
26376;BME280;30544;42.196;24.336;2023-07-31T07:11:03;98603.25;;;30.10;47.03
26376;BME280;30544;42.196;24.336;2023-07-31T07:13:29;98603.44;;;29.91;46.68
26376;BME280;30544;42.196;24.336;2023-07-31T07:15:56;98610.94;;;29.73;46.67
26376;BME280;30544;42.196;24.336;2023-07-31T07:18:22;98611.06;;;30.17;45.60
26376;BME280;30544;42.196;24.336;2023-07-31T07:20:49;98604.09;;;30.11;45.61
26376;BME280;30544;42.196;24.336;2023-07-31T07:23:15;98601.69;;;30.16;45.29
26376;BME280;30544;42.196;24.336;2023-07-31T07:25:43;98612.47;;;30.34;45.06
26376;BME280;30544;42.196;24.336;2023-07-31T07:28:09;98605.69;;;30.52;45.10
26376;BME280;30544;42.196;24.336;2023-07-31T07:30:35;98592.88;;;30.80;44.45
26376;BME280;30544;42.196;24.336;2023-07-31T07:33:01;98593.63;;;30.73;44.99
26376;BME280;30544;42.196;24.336;2023-07-31T07:35:28;98600.53;;;30.69;44.37
26376;BME280;30544;42.196;24.336;2023-07-31T07:37:54;98607.09;;;30.73;43.32
26376;BME280;30544;42.196;24.336;2023-07-31T07:40:20;98603.91;;;30.81;43.58
26376;BME280;30544;42.196;24.336;2023-07-31T07:42:47;98596.66;;;30.95;42.97
26376;BME280;30544;42.196;24.336;2023-07-31T07:45:13;98597.06;;;30.97;42.93
26376;BME280;30544;42.196;24.336;2023-07-31T07:47:40;98597.34;;;30.77;43.22
26376;BME280;30544;42.196;24.336;2023-07-31T07:50:07;98598.63;;;30.87;43.08
26376;BME280;30544;42.196;24.336;2023-07-31T07:52:34;98587.75;;;31.10;42.52
26376;BME280;30544;42.196;24.336;2023-07-31T07:55:00;98590.31;;;31.23;41.97
26376;BME280;30544;42.196;24.336;2023-07-31T07:57:26;98589.81;;;31.13;42.43
26376;BME280;30544;42.196;24.336;2023-07-31T07:59:53;98589.28;;;30.94;42.42
26376;BME280;30544;42.196;24.336;2023-07-31T08:02:19;98586.94;;;31.10;42.03
26376;BME280;30544;42.196;24.336;2023-07-31T08:04:45;98592.75;;;31.21;42.31
26376;BME280;30544;42.196;24.336;2023-07-31T08:07:11;98596.31;;;31.07;42.46
26376;BME280;30544;42.196;24.336;2023-07-31T08:09:38;98591.88;;;31.13;42.09
26376;BME280;30544;42.196;24.336;2023-07-31T08:12:04;98583.28;;;31.17;42.75
26376;BME280;30544;42.196;24.336;2023-07-31T08:14:31;98578.78;;;31.12;42.49
26376;BME280;30544;42.196;24.336;2023-07-31T08:16:57;98587.28;;;30.98;42.88
26376;BME280;30544;42.196;24.336;2023-07-31T08:19:24;98575.81;;;30.98;42.99
26376;BME280;30544;42.196;24.336;2023-07-31T08:21:50;98581.06;;;30.89;43.41
26376;BME280;30544;42.196;24.336;2023-07-31T08:24:16;98585.63;;;30.93;42.69
26376;BME280;30544;42.196;24.336;2023-07-31T08:26:42;98576.72;;;31.09;42.67
26376;BME280;30544;42.196;24.336;2023-07-31T08:29:08;98569.38;;;31.15;42.89
26376;BME280;30544;42.196;24.336;2023-07-31T08:31:34;98575.03;;;31.04;43.32
26376;BME280;30544;42.196;24.336;2023-07-31T08:34:02;98577.16;;;31.14;43.23
26376;BME280;30544;42.196;24.336;2023-07-31T08:36:28;98571.47;;;31.18;42.12
26376;BME280;30544;42.196;24.336;2023-07-31T08:38:54;98569.69;;;30.99;41.86
26376;BME280;30544;42.196;24.336;2023-07-31T08:41:20;98564.19;;;31.31;41.01
26376;BME280;30544;42.196;24.336;2023-07-31T08:43:47;98581.69;;;31.19;41.51
26376;BME280;30544;42.196;24.336;2023-07-31T08:46:13;98584.16;;;31.21;40.36
26376;BME280;30544;42.196;24.336;2023-07-31T08:48:41;98579.38;;;31.46;39.02
26376;BME280;30544;42.196;24.336;2023-07-31T08:51:08;98571.97;;;31.34;39.68
26376;BME280;30544;42.196;24.336;2023-07-31T08:53:34;98578.19;;;31.51;39.99
26376;BME280;30544;42.196;24.336;2023-07-31T08:56:00;98563.50;;;31.70;39.85
26376;BME280;30544;42.196;24.336;2023-07-31T08:58:31;98560.31;;;31.82;39.99
26376;BME280;30544;42.196;24.336;2023-07-31T09:00:58;98567.59;;;31.62;39.66
26376;BME280;30544;42.196;24.336;2023-07-31T09:03:25;98560.22;;;31.71;38.91
26376;BME280;30544;42.196;24.336;2023-07-31T09:05:51;98572.59;;;31.76;38.30
26376;BME280;30544;42.196;24.336;2023-07-31T09:08:20;98548.84;;;31.79;38.34
26376;BME280;30544;42.196;24.336;2023-07-31T09:10:47;98552.94;;;31.85;37.64
26376;BME280;30544;42.196;24.336;2023-07-31T09:13:15;98562.38;;;31.99;37.10
26376;BME280;30544;42.196;24.336;2023-07-31T09:15:43;98561.97;;;31.97;37.75
26376;BME280;30544;42.196;24.336;2023-07-31T09:18:10;98552.97;;;32.06;36.98
26376;BME280;30544;42.196;24.336;2023-07-31T09:20:37;98551.75;;;32.07;36.73
26376;BME280;30544;42.196;24.336;2023-07-31T09:23:07;98555.03;;;32.06;37.54
26376;BME280;30544;42.196;24.336;2023-07-31T09:25:35;98556.28;;;32.12;37.78
26376;BME280;30544;42.196;24.336;2023-07-31T09:28:03;98550.19;;;32.31;38.04
26376;BME280;30544;42.196;24.336;2023-07-31T09:30:30;98567.81;;;32.44;37.66
26376;BME280;30544;42.196;24.336;2023-07-31T09:33:01;98553.00;;;32.17;36.40
26376;BME280;30544;42.196;24.336;2023-07-31T09:35:29;98541.97;;;32.54;36.79
26376;BME280;30544;42.196;24.336;2023-07-31T09:37:58;98544.03;;;32.36;36.59
26376;BME280;30544;42.196;24.336;2023-07-31T09:40:29;98535.41;;;32.65;35.65
26376;BME280;30544;42.196;24.336;2023-07-31T09:43:00;98528.44;;;32.51;35.67
26376;BME280;30544;42.196;24.336;2023-07-31T09:45:27;98526.78;;;32.75;36.07
26376;BME280;30544;42.196;24.336;2023-07-31T09:47:54;98530.88;;;32.78;35.20
26376;BME280;30544;42.196;24.336;2023-07-31T09:50:21;98534.97;;;32.91;34.40
26376;BME280;30544;42.196;24.336;2023-07-31T09:52:47;98534.16;;;32.87;34.71
26376;BME280;30544;42.196;24.336;2023-07-31T09:55:14;98534.56;;;32.75;35.17
26376;BME280;30544;42.196;24.336;2023-07-31T09:57:41;98523.50;;;32.98;34.73
26376;BME280;30544;42.196;24.336;2023-07-31T10:00:10;98522.69;;;32.98;34.35
26376;BME280;30544;42.196;24.336;2023-07-31T10:02:37;98529.56;;;33.21;33.76
26376;BME280;30544;42.196;24.336;2023-07-31T10:05:04;98527.59;;;33.01;34.45
26376;BME280;30544;42.196;24.336;2023-07-31T10:07:33;98526.31;;;33.09;34.16
26376;BME280;30544;42.196;24.336;2023-07-31T10:10:00;98518.50;;;33.16;34.38
26376;BME280;30544;42.196;24.336;2023-07-31T10:12:27;98520.97;;;33.14;33.99
26376;BME280;30544;42.196;24.336;2023-07-31T10:14:54;98523.47;;;33.02;33.55
26376;BME280;30544;42.196;24.336;2023-07-31T10:17:21;98514.06;;;32.87;33.85
26376;BME280;30544;42.196;24.336;2023-07-31T10:19:48;98502.13;;;33.06;33.68
26376;BME280;30544;42.196;24.336;2023-07-31T10:22:15;98506.22;;;33.09;32.46
26376;BME280;30544;42.196;24.336;2023-07-31T10:24:42;98515.28;;;32.89;33.73
26376;BME280;30544;42.196;24.336;2023-07-31T10:27:09;98500.50;;;33.02;33.54
26376;BME280;30544;42.196;24.336;2023-07-31T10:29:36;98499.63;;;33.19;33.09
26376;BME280;30544;42.196;24.336;2023-07-31T10:32:03;98487.75;;;33.06;32.99
26376;BME280;30544;42.196;24.336;2023-07-31T10:34:33;98486.06;;;33.19;33.91
26376;BME280;30544;42.196;24.336;2023-07-31T10:37:22;98483.94;;;33.48;33.22
26376;BME280;30544;42.196;24.336;2023-07-31T10:39:56;98486.81;;;33.45;31.53
26376;BME280;30544;42.196;24.336;2023-07-31T10:42:28;98476.16;;;33.42;31.47
26376;BME280;30544;42.196;24.336;2023-07-31T10:44:57;98479.66;;;33.74;31.16
26376;BME280;30544;42.196;24.336;2023-07-31T10:47:24;98477.59;;;33.78;31.48
26376;BME280;30544;42.196;24.336;2023-07-31T10:49:50;98476.78;;;33.74;30.66
26376;BME280;30544;42.196;24.336;2023-07-31T10:52:20;98475.50;;;33.83;32.07
26376;BME280;30544;42.196;24.336;2023-07-31T10:54:48;98483.47;;;33.61;32.21
26376;BME280;30544;42.196;24.336;2023-07-31T10:57:23;98475.69;;;33.54;32.44
26376;BME280;30544;42.196;24.336;2023-07-31T10:59:50;98477.38;;;33.48;33.37
26376;BME280;30544;42.196;24.336;2023-07-31T11:02:34;98475.69;;;33.54;31.91
26376;BME280;30544;42.196;24.336;2023-07-31T11:05:08;98472.75;;;33.65;32.12
26376;BME280;30544;42.196;24.336;2023-07-31T11:07:47;98469.13;;;33.54;32.13
26376;BME280;30544;42.196;24.336;2023-07-31T11:10:16;98474.41;;;33.59;31.38
26376;BME280;30544;42.196;24.336;2023-07-31T11:12:42;98478.97;;;33.53;31.75
26376;BME280;30544;42.196;24.336;2023-07-31T11:15:09;98477.09;;;33.91;30.73
26376;BME280;30544;42.196;24.336;2023-07-31T11:17:38;98458.91;;;34.08;30.28
26376;BME280;30544;42.196;24.336;2023-07-31T11:20:05;98465.00;;;34.17;30.71
26376;BME280;30544;42.196;24.336;2023-07-31T11:22:34;98461.59;;;34.33;30.80
26376;BME280;30544;42.196;24.336;2023-07-31T11:25:01;98462.41;;;34.33;30.20
26376;BME280;30544;42.196;24.336;2023-07-31T11:27:27;98460.00;;;34.69;29.66
26376;BME280;30544;42.196;24.336;2023-07-31T11:30:00;98442.91;;;34.93;28.95
26376;BME280;30544;42.196;24.336;2023-07-31T11:32:26;98445.75;;;34.96;29.99
26376;BME280;30544;42.196;24.336;2023-07-31T11:34:52;98440.66;;;35.08;29.83
26376;BME280;30544;42.196;24.336;2023-07-31T11:37:19;98448.59;;;35.00;30.35
26376;BME280;30544;42.196;24.336;2023-07-31T11:39:59;98442.66;;;35.14;30.57
26376;BME280;30544;42.196;24.336;2023-07-31T11:42:25;98435.34;;;35.06;30.06
26376;BME280;30544;42.196;24.336;2023-07-31T11:44:51;98440.97;;;35.17;29.88
26376;BME280;30544;42.196;24.336;2023-07-31T11:47:17;98439.91;;;35.04;29.13
26376;BME280;30544;42.196;24.336;2023-07-31T11:49:43;98436.84;;;35.18;30.09
26376;BME280;30544;42.196;24.336;2023-07-31T11:52:10;98434.22;;;35.31;29.52
26376;BME280;30544;42.196;24.336;2023-07-31T11:54:37;98427.84;;;35.46;29.33
26376;BME280;30544;42.196;24.336;2023-07-31T11:57:05;98435.59;;;35.19;29.54
26376;BME280;30544;42.196;24.336;2023-07-31T11:59:31;98428.00;;;35.32;30.06
26376;BME280;30544;42.196;24.336;2023-07-31T12:01:58;98429.34;;;35.24;30.10
26376;BME280;30544;42.196;24.336;2023-07-31T12:04:24;98417.16;;;35.43;29.24
26376;BME280;30544;42.196;24.336;2023-07-31T12:06:52;98429.66;;;35.33;29.62
26376;BME280;30544;42.196;24.336;2023-07-31T12:09:18;98430.88;;;35.02;30.35
26376;BME280;30544;42.196;24.336;2023-07-31T12:11:46;98427.13;;;35.05;30.24
26376;BME280;30544;42.196;24.336;2023-07-31T12:14:20;98416.00;;;35.07;30.58
26376;BME280;30544;42.196;24.336;2023-07-31T12:16:47;98419.56;;;35.18;29.56
26376;BME280;30544;42.196;24.336;2023-07-31T12:19:13;98420.69;;;35.27;30.16
26376;BME280;30544;42.196;24.336;2023-07-31T12:21:39;98425.97;;;34.98;30.35
26376;BME280;30544;42.196;24.336;2023-07-31T12:24:06;98422.94;;;35.09;29.98
26376;BME280;30544;42.196;24.336;2023-07-31T12:26:34;98411.41;;;35.43;30.66
26376;BME280;30544;42.196;24.336;2023-07-31T12:29:00;98404.16;;;35.32;29.98
26376;BME280;30544;42.196;24.336;2023-07-31T12:31:28;98405.44;;;35.57;30.25
26376;BME280;30544;42.196;24.336;2023-07-31T12:33:55;98391.31;;;35.67;29.72
26376;BME280;30544;42.196;24.336;2023-07-31T12:36:23;98405.34;;;35.34;29.63
26376;BME280;30544;42.196;24.336;2023-07-31T12:38:50;98400.53;;;35.24;29.59
26376;BME280;30544;42.196;24.336;2023-07-31T12:41:16;98394.59;;;35.08;29.42
26376;BME280;30544;42.196;24.336;2023-07-31T12:43:44;98388.63;;;35.22;29.17
26376;BME280;30544;42.196;24.336;2023-07-31T12:46:11;98399.97;;;35.06;28.27
26376;BME280;30544;42.196;24.336;2023-07-31T12:48:39;98381.34;;;35.14;28.72